Time;durP1;ratioP1;P1;durP2;ratioP2;P2;SDS_P1;SDS_P2;PMS_P1;PMS_P2;Temp;Humidity;BMP_temperature;BMP_pressure;BME280_temperature;BME280_humidity;BME280_pressure;Samples;Min_cycle;Max_cycle;Signal;HPM_P1;HPM_P2
2021/05/03 00:00:28;;;;;;;;;;;10.10;71.70;;;;;;5085821;28;20028;-67
2021/05/03 00:02:54;;;;;;;2.13;1.33;;;10.10;72.00;;;;;;5085366;28;19908;-67
2021/05/03 00:05:23;;;;;;;;;;;10.10;72.50;;;;;;5086247;28;20058;-68
2021/05/03 00:07:49;;;;;;;3.47;1.50;;;10.10;72.50;;;;;;5085730;28;19981;-67
2021/05/03 00:10:15;;;;;;;5.90;1.60;;;10.10;71.70;;;;;;5086552;28;20038;-66
2021/05/03 00:12:42;;;;;;;;;;;10.20;71.80;;;;;;5089958;28;20103;-68
2021/05/03 00:15:09;;;;;;;3.23;1.37;;;10.30;71.00;;;;;;5088342;28;19912;-67
2021/05/03 00:17:34;;;;;;;2.10;1.20;;;10.30;71.40;;;;;;5089264;28;20093;-68
2021/05/03 00:20:00;;;;;;;;;;;10.40;70.10;;;;;;5089383;28;20028;-68
2021/05/03 00:22:25;;;;;;;2.55;1.25;;;10.40;70.60;;;;;;5088772;28;19908;-68
2021/05/03 00:24:51;;;;;;;;;;;10.40;71.30;;;;;;5089436;28;20077;-67
2021/05/03 00:27:17;;;;;;;3.42;1.52;;;10.40;71.40;;;;;;5088974;28;20003;-68
2021/05/03 00:29:42;;;;;;;;;;;10.40;71.40;;;;;;5089015;28;20103;-67
2021/05/03 00:32:08;;;;;;;2.20;1.50;;;10.40;71.80;;;;;;5088704;28;19908;-68
2021/05/03 00:34:33;;;;;;;;;;;10.40;71.90;;;;;;5088850;28;20052;-67
2021/05/03 00:36:59;;;;;;;2.05;1.33;;;10.40;72.00;;;;;;5088615;28;20462;-67
2021/05/03 00:39:24;;;;;;;;;;;10.50;71.60;;;;;;5089203;28;20020;-66
2021/05/03 00:41:50;;;;;;;2.72;1.70;;;10.40;71.90;;;;;;5088681;28;19915;-67
2021/05/03 00:44:16;;;;;;;;;;;10.40;72.10;;;;;;5088057;28;20580;-67
2021/05/03 00:46:41;;;;;;;2.78;1.70;;;10.40;72.10;;;;;;5087341;28;19919;-67
2021/05/03 00:49:07;;;;;;;;;;;10.40;72.30;;;;;;5089118;28;20070;-67
2021/05/03 00:51:33;;;;;;;2.75;1.63;;;10.50;72.20;;;;;;5088547;28;19984;-67
2021/05/03 00:53:59;;;;;;;3.03;2.20;;;10.40;72.30;;;;;;5088139;28;20111;-67
2021/05/03 00:56:24;;;;;;;;;;;10.50;72.40;;;;;;5088561;28;20119;-66
2021/05/03 00:58:50;;;;;;;4.32;1.95;;;10.40;72.50;;;;;;5088043;28;20368;-67
2021/05/03 01:01:16;;;;;;;;;;;10.50;72.40;;;;;;5088218;28;20039;-67
2021/05/03 01:03:42;;;;;;;3.45;2.00;;;10.40;73.20;;;;;;5088382;28;20388;-68
2021/05/03 01:06:07;;;;;;;2.70;1.73;;;10.40;72.80;;;;;;5088220;28;20476;-67
2021/05/03 01:08:33;;;;;;;;;;;10.40;72.90;;;;;;5088370;28;20024;-68
2021/05/03 01:11:00;;;;;;;3.40;2.13;;;10.40;73.00;;;;;;5086388;28;20027;-68
2021/05/03 01:13:26;;;;;;;3.17;1.95;;;10.40;73.30;;;;;;5087765;28;20078;-67
2021/05/03 01:15:51;;;;;;;;;;;10.30;73.60;;;;;;5088118;28;20036;-68
2021/05/03 01:18:23;;;;;;;4.63;2.47;;;10.30;73.40;;;;;;5087866;28;19915;-67
2021/05/03 01:20:48;;;;;;;4.97;2.38;;;10.30;73.80;;;;;;5087214;28;20070;-67
2021/05/03 01:23:14;;;;;;;;;;;10.20;73.60;;;;;;5087914;28;20370;-67
2021/05/03 01:25:41;;;;;;;4.47;2.28;;;10.10;73.30;;;;;;5086631;28;20470;-66
2021/05/03 01:28:08;;;;;;;7.03;2.15;;;10.10;74.00;;;;;;5087061;28;20024;-67
2021/05/03 01:30:41;;;;;;;5.57;2.33;;;10.00;74.10;;;;;;5087456;28;20663;-67
2021/05/03 01:33:09;;;;;;;4.70;2.30;;;9.90;74.60;;;;;;5087281;28;20105;-67
2021/05/03 01:35:36;;;;;;;3.72;2.63;;;9.90;74.70;;;;;;5087442;28;20047;-66
2021/05/03 01:38:03;;;;;;;4.18;2.60;;;9.90;75.40;;;;;;5087361;28;20032;-67
2021/05/03 01:40:31;;;;;;;4.53;3.10;;;9.90;75.50;;;;;;5087538;28;20038;-67
2021/05/03 01:43:08;;;;;;;3.92;2.30;;;9.90;75.70;;;;;;5087084;28;20496;-67
2021/05/03 01:45:36;;;;;;;3.78;2.70;;;9.80;75.70;;;;;;5087152;28;20051;-67
2021/05/03 01:48:02;;;;;;;3.33;2.15;;;9.80;76.00;;;;;;5086501;28;20040;-67
2021/05/03 01:50:27;;;;;;;;;;;9.70;76.20;;;;;;5087378;28;20628;-67
2021/05/03 01:52:53;;;;;;;3.88;2.80;;;9.70;76.90;;;;;;5087149;28;20449;-67
2021/05/03 01:55:19;;;;;;;;;;;9.70;76.30;;;;;;5087563;28;20489;-68
2021/05/03 01:57:45;;;;;;;3.80;2.40;;;9.70;76.40;;;;;;5085366;28;19908;-67
2021/05/03 02:00:12;;;;;;;4.00;2.55;;;9.70;76.00;;;;;;5086736;28;20031;-67
2021/05/03 02:02:38;;;;;;;4.50;3.13;;;9.70;76.00;;;;;;5087154;28;20700;-67
2021/05/03 02:05:04;;;;;;;;;;;9.80;76.40;;;;;;5086535;28;20542;-67
2021/05/03 02:07:31;;;;;;;4.30;2.63;;;9.70;76.30;;;;;;5086639;28;19904;-69
2021/05/03 02:09:57;;;;;;;4.05;3.00;;;9.80;77.10;;;;;;5086942;28;20031;-67
2021/05/03 02:12:22;;;;;;;;;;;9.70;77.30;;;;;;5084674;28;20548;-67
2021/05/03 02:14:48;;;;;;;4.18;2.40;;;9.70;77.20;;;;;;5074535;28;19916;-67
2021/05/03 02:17:13;;;;;;;;;;;9.70;77.10;;;;;;5066452;28;20029;-67
2021/05/03 02:19:39;;;;;;;4.72;2.63;;;9.70;77.00;;;;;;5066249;28;19904;-66
2021/05/03 02:22:05;;;;;;;;;;;9.70;76.40;;;;;;5067007;28;20028;-67
2021/05/03 02:24:31;;;;;;;3.47;2.35;;;9.70;76.60;;;;;;5065288;28;19904;-67
2021/05/03 02:26:57;;;;;;;3.92;2.17;;;9.70;76.70;;;;;;5065761;28;20040;-68
2021/05/03 02:29:22;;;;;;;;;;;9.80;77.00;;;;;;5066961;28;20033;-68
2021/05/03 02:31:48;;;;;;;3.47;2.45;;;9.70;77.60;;;;;;5083529;28;19908;-66
2021/05/03 02:34:13;;;;;;;;;;;9.70;77.30;;;;;;5084943;28;20464;-68
2021/05/03 02:36:39;;;;;;;4.63;3.03;;;9.70;77.00;;;;;;5086575;28;19908;-67
2021/05/03 02:39:05;;;;;;;;;;;9.70;76.40;;;;;;5087626;28;20548;-66
2021/05/03 02:41:32;;;;;;;5.60;3.55;;;9.70;76.20;;;;;;5084595;28;19904;-67
2021/05/03 02:43:59;;;;;;;5.32;3.90;;;9.70;76.00;;;;;;5086598;28;20056;-68
2021/05/03 02:46:26;;;;;;;5.65;4.07;;;9.70;75.80;;;;;;5086012;28;20035;-67
2021/05/03 02:48:52;;;;;;;5.88;4.13;;;9.70;75.90;;;;;;5086697;28;20049;-67
2021/05/03 02:51:17;;;;;;;;;;;9.70;75.60;;;;;;5086755;28;20028;-68
2021/05/03 02:53:43;;;;;;;6.20;3.75;;;9.70;75.50;;;;;;5086038;28;19911;-67
2021/05/03 02:56:09;;;;;;;;;;;9.70;75.50;;;;;;5086780;28;20044;-67
2021/05/03 02:58:35;;;;;;;4.45;3.42;;;9.70;75.10;;;;;;5085844;28;19953;-68
2021/05/03 03:01:00;;;;;;;;;;;9.70;75.20;;;;;;5086712;28;20485;-67
2021/05/03 03:03:26;;;;;;;7.03;4.60;;;9.60;75.20;;;;;;5086258;28;19982;-69
2021/05/03 03:05:51;;;;;;;;;;;9.60;75.00;;;;;;5086289;28;20059;-67
2021/05/03 03:08:17;;;;;;;6.07;4.03;;;9.60;75.30;;;;;;5086091;28;19915;-67
2021/05/03 03:10:42;;;;;;;;;;;9.60;75.10;;;;;;5086280;28;20029;-67
2021/05/03 03:13:08;;;;;;;7.60;3.90;;;9.60;75.10;;;;;;5085708;28;19924;-67
2021/05/03 03:15:35;;;;;;;;;;;9.60;75.30;;;;;;5086680;28;20106;-67
2021/05/03 03:18:02;;;;;;;5.95;4.07;;;9.60;75.00;;;;;;5085872;28;19953;-67
2021/05/03 03:20:28;;;;;;;5.75;3.17;;;9.60;75.10;;;;;;5085955;28;20031;-68
2021/05/03 03:22:54;;;;;;;;;;;9.60;75.00;;;;;;5085212;28;20032;-67
2021/05/03 03:25:19;;;;;;;6.18;3.60;;;9.60;74.90;;;;;;5086329;28;19943;-67
2021/05/03 03:27:45;;;;;;;;;;;9.60;74.70;;;;;;5084637;28;20024;-67
2021/05/03 03:30:13;;;;;;;5.03;3.63;;;9.60;74.50;;;;;;5084222;28;19962;-67
2021/05/03 03:32:43;;;;;;;8.25;3.17;;;9.50;74.30;;;;;;5085915;28;20044;-68
2021/05/03 03:35:10;;;;;;;4.63;2.83;;;9.60;74.60;;;;;;5085370;28;20060;-67
2021/05/03 03:37:35;;;;;;;4.47;3.60;;;9.60;74.70;;;;;;5082507;28;20254;-67
2021/05/03 03:40:02;;;;;;;;;;;9.50;74.50;;;;;;5074328;28;20020;-68
2021/05/03 03:42:28;;;;;;;5.85;3.47;;;9.50;74.70;;;;;;5078635;28;19914;-68
2021/05/03 03:44:53;;;;;;;;;;;9.60;74.50;;;;;;5070948;28;20028;-67
2021/05/03 03:47:19;;;;;;;4.15;3.00;;;9.50;74.10;;;;;;5064274;28;19930;-68
2021/05/03 03:49:44;;;;;;;;;;;9.50;74.10;;;;;;5065657;28;20119;-67
2021/05/03 03:52:10;;;;;;;3.97;2.67;;;9.50;73.80;;;;;;5085969;28;19907;-67
2021/05/03 03:54:36;;;;;;;;;;;9.50;73.70;;;;;;5086485;28;20044;-67
2021/05/03 03:57:02;;;;;;;4.80;2.80;;;9.60;73.30;;;;;;5085478;28;19915;-67
2021/05/03 03:59:27;;;;;;;;;;;9.50;73.10;;;;;;5086538;28;20028;-68
2021/05/03 04:01:53;;;;;;;4.03;3.17;;;9.50;73.30;;;;;;5085701;28;20497;-68
2021/05/03 04:04:26;;;;;;;5.03;2.88;;;9.60;71.30;;;;;;5086083;28;20333;-67
2021/05/03 04:07:01;;;;;;;3.22;2.40;;;9.60;69.70;;;;;;5085942;28;20020;-67
2021/05/03 04:12:09;;;;;;;;;;;9.70;67.90;;;;;;5085296;28;20108;-67
2021/05/03 04:25:39;;;;;;;4.43;2.88;;;9.80;64.70;;;;;;5085195;28;20408;-66
2021/05/03 04:28:07;;;;;;;4.45;3.15;;;9.80;64.60;;;;;;5084845;28;20488;-67
2021/05/03 04:30:33;;;;;;;3.38;2.35;;;9.80;64.30;;;;;;5085291;28;20028;-67
2021/05/03 04:32:59;;;;;;;3.58;2.80;;;9.80;65.10;;;;;;5085224;28;20143;-67
2021/05/03 04:35:25;;;;;;;;;;;9.80;64.80;;;;;;5085784;28;20119;-67
2021/05/03 04:37:51;;;;;;;5.82;3.53;;;9.80;65.80;;;;;;5084588;28;20041;-68
2021/05/03 04:40:17;;;;;;;4.43;3.25;;;9.70;65.90;;;;;;5084679;28;20530;-67
2021/05/03 04:42:43;;;;;;;;;;;9.70;65.10;;;;;;5084129;28;20028;-67
2021/05/03 04:45:11;;;;;;;6.75;3.70;;;9.70;65.70;;;;;;5084684;28;19912;-67
2021/05/03 04:47:37;;;;;;;5.85;3.50;;;9.70;66.40;;;;;;5084944;28;20036;-67
2021/05/03 04:50:05;;;;;;;4.85;3.60;;;9.70;66.90;;;;;;5084870;28;20106;-67
2021/05/03 04:52:31;;;;;;;6.50;4.20;;;9.70;66.70;;;;;;5085185;28;20023;-67
2021/05/03 04:54:56;;;;;;;;;;;9.70;65.80;;;;;;5085144;28;20031;-67
2021/05/03 04:57:22;;;;;;;7.15;4.43;;;9.80;66.50;;;;;;5084472;28;19915;-67
2021/05/03 04:59:47;;;;;;;;;;;9.80;66.30;;;;;;5084879;28;20031;-67
2021/05/03 05:02:13;;;;;;;7.22;4.32;;;9.80;66.10;;;;;;5084571;28;19915;-67
2021/05/03 05:04:38;;;;;;;;;;;9.90;65.70;;;;;;5085234;28;20240;-67
2021/05/03 05:07:04;;;;;;;7.18;4.05;;;9.90;65.70;;;;;;5084314;28;20660;-67
2021/05/03 05:09:30;;;;;;;;;;;10.00;65.00;;;;;;5085369;28;20106;-68
2021/05/03 05:11:56;;;;;;;6.45;3.88;;;10.00;65.50;;;;;;5083962;28;20736;-67
2021/05/03 05:14:21;;;;;;;;;;;10.10;65.20;;;;;;5085053;28;20032;-67
2021/05/03 05:16:48;;;;;;;5.63;3.90;;;10.10;64.10;;;;;;5084259;28;19915;-67
2021/05/03 05:19:14;;;;;;;5.22;3.95;;;10.20;63.60;;;;;;5084327;28;20492;-67
2021/05/03 05:21:40;;;;;;;;;;;10.30;63.40;;;;;;5084788;28;20035;-67
2021/05/03 05:24:06;;;;;;;9.32;4.45;;;10.50;63.10;;;;;;5084138;28;20276;-68
2021/05/03 05:26:32;;;;;;;6.95;4.05;;;10.60;62.20;;;;;;5083966;28;20267;-67
2021/05/03 05:28:57;;;;;;;;;;;10.70;61.70;;;;;;5083207;28;20038;-66
2021/05/03 05:31:23;;;;;;;6.78;4.03;;;10.90;60.60;;;;;;5084402;28;20037;-67
2021/05/03 05:33:49;;;;;;;;;;;11.10;59.50;;;;;;5083928;28;20196;-67
2021/05/03 05:36:14;;;;;;;5.22;3.58;;;11.30;58.70;;;;;;5083787;28;20415;-67
2021/05/03 05:38:40;;;;;;;;;;;11.40;57.50;;;;;;5087557;28;20028;-67
2021/05/03 05:41:06;;;;;;;6.75;4.20;;;11.50;57.90;;;;;;5087212;28;19996;-67
2021/05/03 05:43:31;;;;;;;;;;;11.70;57.40;;;;;;5088090;28;20039;-67
2021/05/03 05:45:57;;;;;;;6.90;3.47;;;11.90;57.10;;;;;;5087110;28;19907;-67
2021/05/03 05:48:22;;;;;;;;;;;12.20;56.70;;;;;;5085935;28;20043;-68
2021/05/03 05:50:48;;;;;;;5.13;2.92;;;12.50;55.70;;;;;;5087231;28;19914;-68
2021/05/03 05:53:14;;;;;;;;;;;13.00;51.00;;;;;;5087870;28;20020;-67
2021/05/03 05:55:40;;;;;;;7.88;3.72;;;13.10;51.60;;;;;;5086980;28;20589;-68
2021/05/03 05:58:06;;;;;;;6.88;3.10;;;12.90;51.90;;;;;;5085632;28;20023;-67
2021/05/03 06:00:33;;;;;;;3.55;2.65;;;12.80;51.50;;;;;;5086708;28;20077;-67
2021/05/03 06:02:58;;;;;;;4.43;3.10;;;12.60;50.80;;;;;;5085737;28;20412;-67
2021/05/03 06:05:24;;;;;;;;;;;12.50;52.50;;;;;;5087269;28;20035;-68
2021/05/03 06:07:51;;;;;;;3.90;2.70;;;12.50;51.00;;;;;;5086590;28;20271;-66
2021/05/03 06:10:17;;;;;;;4.13;2.70;;;12.40;52.10;;;;;;5086392;28;20032;-67
2021/05/03 06:12:42;;;;;;;;;;;12.40;52.50;;;;;;5087064;28;20047;-66
2021/05/03 06:15:08;;;;;;;4.00;2.92;;;12.50;52.00;;;;;;5086846;28;19916;-67
2021/05/03 06:17:34;;;;;;;;;;;12.60;50.90;;;;;;5085781;28;20180;-67
2021/05/03 06:20:00;;;;;;;3.00;2.08;;;12.70;51.20;;;;;;5086777;28;19911;-67
2021/05/03 06:22:28;;;;;;;;;;;12.90;52.00;;;;;;5087092;28;20036;-67
2021/05/03 06:24:53;;;;;;;5.32;2.85;;;13.10;50.00;;;;;;5084693;28;19908;-67
2021/05/03 06:27:19;;;;;;;;;;;13.30;49.10;;;;;;5087342;28;20805;-66
2021/05/03 06:29:45;;;;;;;4.35;2.60;;;13.50;48.80;;;;;;5086748;28;19919;-67
2021/05/03 06:32:10;;;;;;;;;;;13.60;48.30;;;;;;5085415;28;20603;-66
2021/05/03 06:34:36;;;;;;;5.22;2.03;;;13.70;46.60;;;;;;5085332;28;20368;-67
2021/05/03 06:37:03;;;;;;;6.07;2.58;;;13.70;47.70;;;;;;5086868;28;20056;-67
2021/05/03 06:39:28;;;;;;;;;;;13.60;48.00;;;;;;5086601;28;20103;-68
2021/05/03 06:41:54;;;;;;;3.70;2.75;;;13.70;48.00;;;;;;5086565;28;20373;-68
2021/05/03 06:44:20;;;;;;;;;;;13.80;47.90;;;;;;5086809;28;20048;-69
2021/05/03 06:46:46;;;;;;;6.00;2.50;;;13.90;46.60;;;;;;5086084;28;19919;-68
2021/05/03 06:49:11;;;;;;;3.55;2.42;;;13.90;46.30;;;;;;5085434;28;20546;-67
2021/05/03 06:51:37;;;;;;;;;;;13.60;46.60;;;;;;5086479;28;20111;-68
2021/05/03 06:54:03;;;;;;;2.70;2.08;;;13.70;46.40;;;;;;5084903;28;19937;-68
2021/05/03 06:56:28;;;;;;;3.65;2.13;;;13.70;45.40;;;;;;5086137;28;20116;-69
2021/05/03 06:58:54;;;;;;;;;;;13.70;47.00;;;;;;5086512;28;20285;-68
2021/05/03 07:01:21;;;;;;;6.35;2.15;;;13.70;46.50;;;;;;5086264;28;19962;-68
2021/05/03 07:03:47;;;;;;;2.95;2.10;;;13.70;46.50;;;;;;5086448;28;20054;-67
2021/05/03 07:06:13;;;;;;;;;;;13.80;46.40;;;;;;5086413;28;20485;-68
2021/05/03 07:08:39;;;;;;;3.60;2.28;;;13.70;46.70;;;;;;5084319;28;19919;-68
2021/05/03 07:11:09;;;;;;;6.13;2.53;;;13.70;46.80;;;;;;5086008;28;20031;-68
2021/05/03 07:13:36;;;;;;;3.70;2.78;;;13.80;45.20;;;;;;5086233;28;20429;-68
2021/05/03 07:16:02;;;;;;;3.40;1.90;;;13.80;45.60;;;;;;5086090;28;20519;-68
2021/05/03 07:18:27;;;;;;;4.28;2.28;;;13.90;45.60;;;;;;5085766;28;20434;-68
2021/05/03 07:20:53;;;;;;;;;;;14.00;45.60;;;;;;5090762;28;20493;-68
2021/05/03 07:23:18;;;;;;;3.42;2.35;;;14.00;45.40;;;;;;5090135;28;19908;-67
2021/05/03 07:25:44;;;;;;;;;;;14.10;45.00;;;;;;5090293;28;20040;-68
2021/05/03 07:28:10;;;;;;;4.45;2.45;;;13.80;45.30;;;;;;5090053;28;20272;-67
2021/05/03 07:30:35;;;;;;;;;;;13.90;45.70;;;;;;5088736;28;20120;-67
2021/05/03 07:33:01;;;;;;;3.70;2.13;;;13.90;45.50;;;;;;5088513;28;20346;-68
2021/05/03 07:35:26;;;;;;;;;;;14.00;44.40;;;;;;5090010;28;20044;-68
2021/05/03 07:37:52;;;;;;;6.88;2.13;;;13.80;45.00;;;;;;5089967;28;19915;-68
2021/05/03 07:40:18;;;;;;;;;;;14.10;45.90;;;;;;5089938;28;20048;-68
2021/05/03 07:42:44;;;;;;;6.65;2.55;;;14.30;44.00;;;;;;5089470;28;19915;-68
2021/05/03 07:45:14;;;;;;;5.93;2.75;;;14.50;43.90;;;;;;5088441;28;20670;-68
2021/05/03 07:47:40;;;;;;;3.67;1.80;;;14.80;44.60;;;;;;5089664;28;20080;-68
2021/05/03 07:50:06;;;;;;;;;;;15.00;44.20;;;;;;5089691;28;20093;-68
2021/05/03 07:52:33;;;;;;;6.72;2.30;;;15.40;42.50;;;;;;5089759;28;19951;-68
2021/05/03 07:54:59;;;;;;;4.15;2.05;;;15.70;41.70;;;;;;5089306;28;20077;-67
2021/05/03 07:57:25;;;;;;;6.60;2.40;;;15.80;41.60;;;;;;5089779;28;20035;-68
2021/05/03 07:59:51;;;;;;;4.20;2.00;;;15.90;41.70;;;;;;5089180;28;20156;-66
2021/05/03 08:02:17;;;;;;;3.78;2.25;;;15.80;41.10;;;;;;5089184;28;20040;-68
2021/05/03 08:04:43;;;;;;;9.25;2.42;;;15.50;41.80;;;;;;5089483;28;20028;-68
2021/05/03 08:07:08;;;;;;;5.80;2.33;;;15.40;41.40;;;;;;5088322;28;20036;-68
2021/05/03 08:09:36;;;;;;;;;;;15.30;42.10;;;;;;5089488;28;20032;-67
2021/05/03 08:12:02;;;;;;;8.27;1.80;;;15.30;42.50;;;;;;5089463;28;20131;-67
2021/05/03 08:14:28;;;;;;;3.70;1.70;;;15.40;42.40;;;;;;5088708;28;20078;-67
2021/05/03 08:16:59;;;;;;;6.43;2.38;;;15.50;40.90;;;;;;5089262;28;20032;-69
2021/05/03 08:19:25;;;;;;;3.30;1.48;;;15.80;40.70;;;;;;5087655;28;20056;-68
2021/05/03 08:21:52;;;;;;;4.30;2.05;;;15.90;39.60;;;;;;5088680;28;20059;-68
2021/05/03 08:24:17;;;;;;;3.42;1.70;;;16.20;40.60;;;;;;5088631;28;20016;-68
2021/05/03 08:26:43;;;;;;;3.22;1.85;;;16.60;39.50;;;;;;5089224;28;20034;-68
2021/05/03 08:29:09;;;;;;;4.28;1.70;;;16.80;38.70;;;;;;5088500;28;20059;-66
2021/05/03 08:31:34;;;;;;;3.50;2.20;;;17.40;37.10;;;;;;5086618;28;20051;-67
2021/05/03 08:34:00;;;;;;;3.63;2.10;;;17.70;36.20;;;;;;5088556;28;20571;-68
2021/05/03 08:36:26;;;;;;;2.40;1.75;;;17.80;36.00;;;;;;5088502;28;20075;-68
2021/05/03 08:38:51;;;;;;;5.40;1.73;;;18.00;35.10;;;;;;5086897;28;20023;-68
2021/05/03 08:41:17;;;;;;;4.55;1.58;;;17.70;36.70;;;;;;5088760;28;20048;-68
2021/05/03 08:43:46;;;;;;;3.70;1.60;;;17.70;36.00;;;;;;5088496;28;20025;-67
2021/05/03 08:46:25;;;;;;;3.53;1.50;;;17.70;36.40;;;;;;5088916;28;20028;-68
2021/05/03 08:50:05;;;;;;;4.20;1.73;;;18.30;37.10;;;;;;5088421;28;20076;-67
2021/05/03 08:54:31;;;;;;;1.92;1.33;;;19.90;34.50;;;;;;5088447;28;20065;-67
2021/05/03 08:56:57;;;;;;;4.35;1.70;;;20.50;33.30;;;;;;5088448;28;20040;-67
2021/05/03 08:59:23;;;;;;;7.47;1.42;;;20.60;31.00;;;;;;5088402;28;20038;-67
2021/05/03 09:01:52;;;;;;;3.55;1.83;;;20.50;30.80;;;;;;5088430;28;20043;-68
2021/05/03 09:04:18;;;;;;;2.60;1.50;;;20.20;31.00;;;;;;5088074;28;20051;-67
2021/05/03 09:07:04;;;;;;;3.17;1.30;;;20.00;32.40;;;;;;5087922;28;20032;-66
2021/05/03 09:09:52;;;;;;;2.55;1.38;;;20.00;31.00;;;;;;5087557;28;20016;-68
2021/05/03 09:12:20;;;;;;;2.22;1.40;;;19.60;30.80;;;;;;5088097;28;20048;-68
2021/05/03 09:14:49;;;;;;;2.05;0.93;;;19.30;31.20;;;;;;5087945;28;20050;-68
2021/05/03 09:17:22;;;;;;;3.08;1.00;;;18.70;29.90;;;;;;5088084;28;20040;-67
2021/05/03 09:19:48;;;;;;;4.32;1.33;;;18.50;31.00;;;;;;5087968;28;20518;-67
2021/05/03 09:22:25;;;;;;;6.95;1.48;;;18.40;31.00;;;;;;5087874;28;20446;-68
2021/05/03 09:24:51;;;;;;;2.55;1.40;;;18.70;30.90;;;;;;5086655;28;20031;-67
2021/05/03 09:27:20;;;;;;;3.53;1.10;;;18.90;30.40;;;;;;5087684;28;20024;-67
2021/05/03 09:29:48;;;;;;;2.70;0.85;;;19.20;30.20;;;;;;5087633;28;20369;-67
2021/05/03 09:32:16;;;;;;;1.27;0.77;;;19.20;30.50;;;;;;5087551;28;20044;-67
2021/05/03 09:34:51;;;;;;;5.85;1.08;;;19.20;29.90;;;;;;5087445;28;20489;-67
2021/05/03 09:37:33;;;;;;;1.75;0.90;;;19.50;30.20;;;;;;5087253;28;20036;-67
2021/05/03 09:40:14;;;;;;;2.15;0.90;;;19.80;30.10;;;;;;5087766;28;20027;-67
2021/05/03 09:42:54;;;;;;;1.58;0.80;;;20.40;28.40;;;;;;5085501;28;20032;-67
2021/05/03 09:45:26;;;;;;;6.15;1.23;;;20.80;28.10;;;;;;5087534;28;20031;-68
2021/05/03 09:47:54;;;;;;;2.15;0.90;;;20.90;27.40;;;;;;5087386;28;20523;-68
2021/05/03 09:50:29;;;;;;;5.38;1.02;;;20.90;26.80;;;;;;5087279;28;20446;-68
2021/05/03 09:53:14;;;;;;;2.95;1.00;;;20.60;27.70;;;;;;5086881;28;20515;-67
2021/05/03 09:55:44;;;;;;;1.23;0.73;;;20.30;28.20;;;;;;5086918;28;20447;-67
2021/05/03 09:58:16;;;;;;;2.78;0.85;;;20.20;28.30;;;;;;5087278;28;20020;-68
2021/05/03 10:00:50;;;;;;;1.75;0.80;;;20.40;28.00;;;;;;5086711;28;20552;-67
2021/05/03 10:03:34;;;;;;;1.38;0.63;;;20.00;28.10;;;;;;5087293;28;20024;-67
2021/05/03 10:06:01;;;;;;;4.97;0.75;;;19.70;28.60;;;;;;5087095;28;20508;-68
2021/05/03 10:08:27;;;;;;;2.10;0.70;;;19.30;29.40;;;;;;5086596;28;20080;-67
2021/05/03 10:10:56;;;;;;;2.38;0.80;;;19.20;28.80;;;;;;5086742;28;20036;-68
2021/05/03 10:13:23;;;;;;;5.43;0.98;;;19.00;29.00;;;;;;5086781;28;20032;-68
2021/05/03 10:15:50;;;;;;;3.10;0.80;;;18.90;28.00;;;;;;5086965;28;20040;-67
2021/05/03 10:18:18;;;;;;;1.40;0.60;;;18.80;27.30;;;;;;5087047;28;20115;-67
2021/05/03 10:20:45;;;;;;;1.80;0.80;;;18.60;28.50;;;;;;5086968;28;20027;-68
2021/05/03 10:23:12;;;;;;;4.18;1.00;;;18.40;28.90;;;;;;5086368;28;20008;-67
2021/05/03 10:25:39;;;;;;;1.58;0.65;;;18.10;28.60;;;;;;5086720;28;20016;-67
2021/05/03 10:28:04;;;;;;;1.50;0.80;;;17.90;29.10;;;;;;5085190;28;20535;-69
2021/05/03 10:30:30;;;;;;;3.53;0.47;;;17.60;28.90;;;;;;5086656;28;20031;-69
2021/05/03 10:33:04;;;;;;;1.08;0.55;;;17.70;29.50;;;;;;5086504;28;20048;-69
2021/05/03 10:35:37;;;;;;;3.38;0.65;;;17.80;30.40;;;;;;5086648;28;20467;-69
2021/05/03 10:38:03;;;;;;;1.70;0.50;;;18.00;30.50;;;;;;5084962;28;20040;-69
2021/05/03 10:40:35;;;;;;;4.30;0.82;;;18.00;29.80;;;;;;5084913;28;20085;-69
2021/05/03 10:43:08;;;;;;;2.65;0.50;;;18.10;29.80;;;;;;5086543;28;20024;-69
2021/05/03 10:49:01;;;;;;;1.33;0.50;;;18.20;29.50;;;;;;5086019;28;20166;-69
2021/05/03 10:52:16;;;;;;;4.38;0.60;;;18.20;29.10;;;;;;5085727;28;20030;-70
2021/05/03 10:54:40;;;;;;;5.50;0.85;;;18.10;28.90;;;;;;5077917;28;20119;-68
2021/05/03 10:57:08;;;;;;;1.55;0.47;;;18.30;28.40;;;;;;5086395;28;20135;-66
2021/05/03 10:59:44;;;;;;;0.75;0.50;;;18.10;28.10;;;;;;5086000;28;20020;-67
2021/05/03 11:02:20;;;;;;;0.68;0.40;;;18.00;28.70;;;;;;5086556;28;20337;-68
2021/05/03 11:05:12;;;;;;;5.05;0.50;;;18.10;29.30;;;;;;5086091;28;20028;-68
2021/05/03 11:08:13;;;;;;;3.63;0.50;;;18.10;29.20;;;;;;5085669;28;20020;-68
2021/05/03 11:10:59;;;;;;;2.15;0.75;;;18.10;29.00;;;;;;5003217;28;20117;-68
2021/05/03 11:13:40;;;;;;;3.55;0.55;;;18.10;29.10;;;;;;5080313;28;20040;-67
2021/05/03 11:16:31;;;;;;;2.08;0.50;;;18.00;28.70;;;;;;5084534;28;20036;-66
2021/05/03 11:19:02;;;;;;;1.23;0.63;;;17.80;30.00;;;;;;5085820;28;20105;-67
2021/05/03 11:21:41;;;;;;;2.33;0.50;;;17.70;29.40;;;;;;5085685;28;20025;-67
2021/05/03 11:24:28;;;;;;;1.17;0.40;;;17.50;29.30;;;;;;5085899;28;20039;-67
2021/05/03 11:29:36;;;;;;;0.68;0.40;;;17.20;29.40;;;;;;5085902;28;20027;-67
2021/05/03 11:32:03;;;;;;;2.33;0.53;;;17.10;29.90;;;;;;5085695;28;20478;-67
2021/05/03 11:34:43;;;;;;;2.90;0.80;;;17.10;28.60;;;;;;5085925;28;20039;-68
2021/05/03 11:37:13;;;;;;;2.53;1.23;;;17.20;28.60;;;;;;5085134;28;20059;-67
2021/05/03 11:39:53;;;;;;;2.65;0.55;;;17.10;28.70;;;;;;5085735;28;20395;-68
2021/05/03 11:44:54;;;;;;;1.73;0.50;;;16.90;29.20;;;;;;5085851;28;20119;-67
2021/05/03 11:47:30;;;;;;;2.25;0.50;;;16.70;30.40;;;;;;5086132;28;20024;-67
2021/05/03 11:49:57;;;;;;;4.63;0.70;;;16.70;29.70;;;;;;5086135;28;20030;-68
2021/05/03 11:52:38;;;;;;;2.22;0.60;;;16.80;28.90;;;;;;5085372;28;20198;-67
2021/05/03 11:55:08;;;;;;;5.28;0.68;;;16.80;29.10;;;;;;5085502;28;20187;-67
2021/05/03 11:57:38;;;;;;;4.68;0.50;;;16.80;28.50;;;;;;5085543;28;20061;-67
2021/05/03 12:00:07;;;;;;;1.85;0.70;;;16.80;29.40;;;;;;5085824;28;20511;-67
2021/05/03 12:02:32;;;;;;;3.05;0.47;;;16.70;28.40;;;;;;5085723;28;20023;-67
2021/05/03 12:04:58;;;;;;;1.58;0.50;;;16.70;30.70;;;;;;5086392;28;20267;-67
2021/05/03 12:07:29;;;;;;;1.42;0.60;;;16.80;29.60;;;;;;5088724;28;20086;-67
2021/05/03 12:10:12;;;;;;;2.67;0.75;;;16.80;29.60;;;;;;5089455;28;20028;-68
2021/05/03 12:12:47;;;;;;;1.33;0.40;;;16.90;28.90;;;;;;5089440;28;20024;-68
2021/05/03 12:15:22;;;;;;;5.40;0.57;;;16.80;29.20;;;;;;5089213;28;20103;-68
2021/05/03 12:17:49;;;;;;;1.85;0.77;;;16.70;29.10;;;;;;5088729;28;20064;-67
2021/05/03 12:20:27;;;;;;;2.13;0.50;;;16.70;28.30;;;;;;5088975;28;20028;-67
2021/05/03 12:23:02;;;;;;;6.97;0.75;;;16.80;28.70;;;;;;5089477;28;20357;-66
2021/05/03 12:25:57;;;;;;;1.60;0.60;;;16.90;28.60;;;;;;5089167;28;20044;-68
2021/05/03 12:28:24;;;;;;;1.48;0.63;;;16.70;28.50;;;;;;5088977;28;20056;-67
2021/05/03 12:30:58;;;;;;;1.40;0.60;;;16.50;28.10;;;;;;5080182;28;20144;-67
2021/05/03 12:33:25;;;;;;;1.27;0.50;;;16.40;28.80;;;;;;5068356;28;20578;-67
2021/05/03 12:35:54;;;;;;;3.45;0.50;;;16.40;30.30;;;;;;5068307;28;20501;-67
2021/05/03 12:38:26;;;;;;;6.45;1.00;;;16.50;30.30;;;;;;5067436;28;20052;-67
2021/05/03 12:40:57;;;;;;;1.17;0.50;;;16.60;30.00;;;;;;5068747;28;20085;-67
2021/05/03 12:43:37;;;;;;;6.75;0.57;;;16.60;29.10;;;;;;5068385;28;20192;-68
2021/05/03 12:48:37;;;;;;;1.85;0.70;;;16.80;28.90;;;;;;5068208;28;20024;-66
2021/05/03 12:51:23;;;;;;;3.13;0.70;;;16.70;29.60;;;;;;5067946;28;20020;-67
2021/05/03 12:57:03;;;;;;;3.60;0.82;;;16.50;29.80;;;;;;5067378;28;20151;-67
2021/05/03 12:59:56;;;;;;;4.43;0.80;;;16.50;31.10;;;;;;5065843;28;20040;-67
2021/05/03 13:05:24;;;;;;;3.17;0.55;;;16.60;30.10;;;;;;5066608;28;20086;-68
2021/05/03 13:30:01;;;;;;;1.98;0.50;;;16.00;29.60;;;;;;5076195;28;20031;-68
2021/05/03 13:32:30;;;;;;;1.45;0.60;;;16.10;31.50;;;;;;5070340;28;20054;-70
2021/05/03 13:34:57;;;;;;;1.33;0.50;;;16.20;31.60;;;;;;5066488;28;20039;-68
2021/05/03 13:37:23;;;;;;;2.80;0.77;;;16.20;31.80;;;;;;5071128;28;20461;-68
2021/05/03 13:39:49;;;;;;;;;;;16.30;30.60;;;;;;5080913;28;20508;-68
2021/05/03 13:42:15;;;;;;;2.15;0.70;;;16.30;29.80;;;;;;5081576;28;19917;-67
2021/05/03 13:44:43;;;;;;;4.78;0.68;;;16.10;30.80;;;;;;5077741;28;20287;-67
2021/05/03 13:47:09;;;;;;;0.93;0.52;;;16.10;30.60;;;;;;5078191;28;20359;-68
2021/05/03 13:49:35;;;;;;;1.70;0.70;;;16.20;32.00;;;;;;5066562;28;20266;-67
2021/05/03 13:52:02;;;;;;;;;;;16.30;32.10;;;;;;5066675;28;20059;-66
2021/05/03 13:54:27;;;;;;;7.40;0.93;;;16.40;30.80;;;;;;5065716;28;19998;-67
2021/05/03 13:56:57;;;;;;;;;;;16.40;30.20;;;;;;5064921;28;20572;-67
2021/05/03 13:59:23;;;;;;;3.10;0.63;;;16.30;32.00;;;;;;5066535;28;19919;-68
2021/05/03 14:01:48;;;;;;;;;;;16.40;30.40;;;;;;5066605;28;20036;-67
2021/05/03 14:04:14;;;;;;;6.70;0.60;;;16.30;31.00;;;;;;5065579;28;20682;-67
2021/05/03 14:06:39;;;;;;;;;;;16.00;30.30;;;;;;5065902;28;20039;-67
2021/05/03 14:09:05;;;;;;;2.85;0.65;;;15.90;31.50;;;;;;5065940;28;19919;-66
2021/05/03 14:11:32;;;;;;;3.20;0.70;;;16.00;30.30;;;;;;5074812;28;20496;-67